createdAt,value
2023-02-03T00:01:12.982Z,99100.13
2023-02-03T00:03:42.516Z,99091.69
2023-02-03T00:06:11.885Z,99085.88
2023-02-03T00:08:43.400Z,99096.25
2023-02-03T00:11:12.608Z,99061.00
2023-02-03T00:13:41.944Z,99018.66
2023-02-03T00:16:22.024Z,99095.66
2023-02-03T00:18:51.337Z,99080.50
2023-02-03T00:21:20.473Z,99088.34
2023-02-03T00:23:51.993Z,99085.19
2023-02-03T00:26:21.191Z,99088.81
2023-02-03T00:28:55.805Z,99084.72
2023-02-03T00:31:26.669Z,99084.03
2023-02-03T00:36:35.531Z,99087.50
2023-02-03T00:39:12.021Z,99091.84
2023-02-03T00:41:41.249Z,99085.88
2023-02-03T00:44:10.456Z,99053.91
2023-02-03T00:46:49.980Z,99094.72
2023-02-03T00:49:30.159Z,99088.03
2023-02-03T00:51:59.464Z,99086.25
2023-02-03T00:54:32.634Z,99088.25
2023-02-03T00:57:08.226Z,99070.34
2023-02-03T00:59:37.550Z,99088.25
2023-02-03T01:02:13.418Z,99057.38
2023-02-03T01:04:53.648Z,99089.03
2023-02-03T01:07:22.959Z,99080.44
2023-02-03T01:09:55.286Z,99074.34
2023-02-03T01:12:32.983Z,99082.53
2023-02-03T01:15:02.356Z,99085.00
2023-02-03T01:17:33.476Z,99081.66
2023-02-03T01:20:02.752Z,99064.66
2023-02-03T01:22:39.844Z,99075.81
2023-02-03T01:25:12.850Z,99057.88
2023-02-03T01:27:41.768Z,99067.91
2023-02-03T01:30:12.476Z,99063.50
2023-02-03T01:32:41.684Z,99071.22
2023-02-03T01:35:11.079Z,99071.34
2023-02-03T01:37:45.270Z,99063.88
2023-02-03T01:42:51.326Z,99072.63
2023-02-03T01:45:30.950Z,99069.22
2023-02-03T01:48:06.201Z,99073.41
2023-02-03T01:50:38.327Z,99033.19
2023-02-03T01:53:13.628Z,99057.31
2023-02-03T01:55:48.689Z,99072.63
2023-02-03T01:58:24.304Z,99057.06
2023-02-03T02:00:57.069Z,99060.63
2023-02-03T02:03:29.737Z,99050.47
2023-02-03T02:06:05.668Z,99064.44
2023-02-03T02:08:35.257Z,99065.06
2023-02-03T02:11:07.287Z,99064.97
2023-02-03T02:13:39.556Z,99069.16
2023-02-03T02:16:17.013Z,99067.75
2023-02-03T02:19:02.265Z,99047.28
2023-02-03T02:21:50.897Z,99056.00
2023-02-03T02:24:50.480Z,99061.13
2023-02-03T02:27:34.144Z,99021.63
2023-02-03T02:30:43.509Z,99054.25
2023-02-03T02:33:21.083Z,99056.00
2023-02-03T02:35:59.432Z,99056.09
2023-02-03T02:38:48.764Z,99057.91
2023-02-03T02:41:25.031Z,99054.47
2023-02-03T02:44:03.403Z,99057.94
2023-02-03T02:46:40.542Z,99056.34
2023-02-03T02:49:18.433Z,99043.50
2023-02-03T02:51:50.459Z,99046.13
2023-02-03T02:54:23.687Z,99040.09
2023-02-03T02:56:57.523Z,99048.84
2023-02-03T02:59:31.927Z,99035.16
2023-02-03T03:02:01.770Z,99031.69
2023-02-03T03:04:35.833Z,99037.69
2023-02-03T03:07:10.247Z,99045.41
2023-02-03T03:09:44.927Z,99044.50
2023-02-03T03:12:18.877Z,99049.59
2023-02-03T03:14:57.098Z,99051.28
2023-02-03T03:17:29.804Z,99020.31
2023-02-03T03:20:11.375Z,99046.78
2023-02-03T03:22:45.951Z,99047.59
2023-02-03T03:25:19.192Z,99049.19
2023-02-03T03:27:53.892Z,99050.88
2023-02-03T03:33:07.520Z,99051.00
2023-02-03T03:35:49.383Z,99051.22
2023-02-03T03:38:25.333Z,99052.84
2023-02-03T03:41:01.108Z,99045.94
2023-02-03T03:43:33.906Z,99052.91
2023-02-03T03:46:06.833Z,99055.50
2023-02-03T03:48:47.340Z,99052.91
2023-02-03T03:51:22.375Z,99049.59
2023-02-03T03:53:54.004Z,99052.97
2023-02-03T03:56:34.533Z,99054.63
2023-02-03T03:59:10.806Z,99044.28
2023-02-03T04:01:41.179Z,99046.88
2023-02-03T04:04:13.216Z,98998.06
2023-02-03T04:06:44.069Z,99054.81
2023-02-03T04:09:13.335Z,99046.88
2023-02-03T04:11:55.444Z,99043.34
2023-02-03T04:14:24.898Z,99058.66
2023-02-03T04:16:53.971Z,99055.31
2023-02-03T04:19:23.196Z,99061.34
2023-02-03T04:21:54.700Z,99057.22
2023-02-03T04:24:23.916Z,99054.78
2023-02-03T04:26:52.998Z,99048.88
2023-02-03T04:29:22.300Z,99030.84
2023-02-03T04:31:51.536Z,99058.28
2023-02-03T04:34:20.763Z,99063.28
2023-02-03T04:37:02.372Z,99047.13
2023-02-03T04:39:31.522Z,99055.63
2023-02-03T04:42:01.093Z,99063.31
2023-02-03T04:44:30.521Z,99057.50
2023-02-03T04:47:07.673Z,99055.72
2023-02-03T04:49:36.851Z,99050.63
2023-02-03T04:52:08.537Z,99053.25
2023-02-03T04:54:37.829Z,99022.34
2023-02-03T04:57:07.422Z,99057.59
2023-02-03T04:59:36.631Z,99038.81
2023-02-03T05:02:05.912Z,99056.00
2023-02-03T05:04:35.058Z,99053.47
2023-02-03T05:07:04.503Z,99063.66
2023-02-03T05:09:41.014Z,99055.03
2023-02-03T05:12:10.264Z,99053.38
2023-02-03T05:14:39.410Z,99054.28
2023-02-03T05:17:13.682Z,99032.72
2023-02-03T05:19:43.137Z,99050.41
2023-02-03T05:22:22.527Z,99061.53
2023-02-03T05:24:53.716Z,99057.25
2023-02-03T05:27:23.121Z,99023.00
2023-02-03T05:29:52.408Z,99053.09
2023-02-03T05:32:26.672Z,99053.25
2023-02-03T05:35:05.928Z,99060.22
2023-02-03T05:37:35.597Z,99057.75
2023-02-03T05:40:21.052Z,99041.56
2023-02-03T05:42:51.035Z,99050.19
2023-02-03T05:48:02.132Z,99057.03
2023-02-03T05:50:33.605Z,99003.81
2023-02-03T05:53:11.718Z,99058.72
2023-02-03T05:55:47.948Z,99063.06
2023-02-03T05:58:17.498Z,99045.91
2023-02-03T06:00:47.032Z,99067.88
2023-02-03T06:03:16.465Z,99043.97
2023-02-03T06:05:45.679Z,99064.69
2023-02-03T06:08:14.821Z,99061.44
2023-02-03T06:10:43.953Z,99045.25
2023-02-03T06:13:20.208Z,99063.22
2023-02-03T06:15:49.512Z,99064.13
2023-02-03T06:18:18.654Z,99065.13
2023-02-03T06:21:00.204Z,99066.91
2023-02-03T06:23:29.414Z,99058.47
2023-02-03T06:25:59.969Z,99065.22
2023-02-03T06:28:33.113Z,99059.31
2023-02-03T06:31:08.771Z,99063.66
2023-02-03T06:33:38.071Z,99067.94
2023-02-03T06:36:07.977Z,99025.94
2023-02-03T06:38:37.151Z,99062.81
2023-02-03T06:41:06.643Z,99059.63
2023-02-03T06:43:43.390Z,99055.50
2023-02-03T06:46:14.003Z,99067.34
2023-02-03T06:48:43.202Z,99061.41
2023-02-03T06:51:12.295Z,99059.88
2023-02-03T06:53:54.976Z,99053.91
2023-02-03T06:56:24.122Z,99051.34
2023-02-03T06:58:55.152Z,99065.88
2023-02-03T07:01:25.502Z,99044.69
2023-02-03T07:03:57.491Z,99063.38
2023-02-03T07:06:28.764Z,99064.34
2023-02-03T07:08:59.519Z,99069.47
2023-02-03T07:11:30.488Z,99071.91
2023-02-03T07:14:06.954Z,99066.06
2023-02-03T07:16:37.125Z,99065.31
2023-02-03T07:19:12.863Z,99062.56
2023-02-03T07:21:42.218Z,99063.47
2023-02-03T07:24:11.609Z,99065.28
2023-02-03T07:26:46.636Z,99068.84
2023-02-03T07:29:17.712Z,99056.97
2023-02-03T07:31:52.234Z,99063.00
2023-02-03T07:34:21.396Z,99001.97
2023-02-03T07:36:55.965Z,99065.56
2023-02-03T07:39:26.091Z,99047.56
2023-02-03T07:41:55.506Z,99039.91
2023-02-03T07:44:27.656Z,99065.75
2023-02-03T07:46:57.262Z,99059.94
2023-02-03T07:49:26.463Z,99057.47
2023-02-03T07:51:56.099Z,99047.19
2023-02-03T07:54:25.210Z,99058.47
2023-02-03T07:56:54.560Z,99052.69
2023-02-03T07:59:23.587Z,99045.91
2023-02-03T08:01:55.845Z,99045.94
2023-02-03T08:04:25.270Z,99046.91
2023-02-03T08:06:54.807Z,99030.66
2023-02-03T08:09:24.009Z,99049.56
2023-02-03T08:11:53.534Z,99045.34
2023-02-03T08:14:23.521Z,99037.72
2023-02-03T08:16:54.526Z,99050.56
2023-02-03T08:19:23.679Z,99050.50
2023-02-03T08:21:52.804Z,99054.63
2023-02-03T08:24:22.861Z,99049.38
2023-02-03T08:26:52.554Z,99045.00
2023-02-03T08:29:26.865Z,99050.00
2023-02-03T08:31:59.738Z,99045.69
2023-02-03T08:34:29.291Z,99053.28
2023-02-03T08:36:58.454Z,99042.25
2023-02-03T08:39:27.827Z,99044.78
2023-02-03T08:41:57.023Z,99009.72
2023-02-03T08:44:26.405Z,99049.81
2023-02-03T08:46:58.002Z,99024.09
2023-02-03T08:49:29.255Z,99043.09
2023-02-03T08:52:04.097Z,99038.13
2023-02-03T08:54:33.318Z,99033.84
2023-02-03T08:57:05.134Z,99039.06
2023-02-03T08:59:35.714Z,99042.56
2023-02-03T09:02:18.200Z,99021.16
2023-02-03T09:04:49.947Z,99023.59
2023-02-03T09:07:19.296Z,99037.28
2023-02-03T09:09:48.533Z,99037.34
2023-02-03T09:12:22.755Z,99016.75
2023-02-03T09:14:52.438Z,99045.88
2023-02-03T09:17:23.665Z,99038.28
2023-02-03T09:19:52.945Z,99048.59
2023-02-03T09:22:22.051Z,99041.78
2023-02-03T09:24:56.950Z,99032.44
2023-02-03T09:27:26.090Z,99047.75
2023-02-03T09:29:55.283Z,99033.22
2023-02-03T09:32:33.531Z,99031.31
2023-02-03T09:35:02.715Z,99035.47
2023-02-03T09:37:32.729Z,99032.91
2023-02-03T09:40:08.500Z,99027.03
2023-02-03T09:43:05.602Z,99006.63
2023-02-03T09:45:40.127Z,99021.34
2023-02-03T09:48:18.542Z,99031.81
2023-02-03T09:50:50.486Z,99024.25
2023-02-03T09:53:29.679Z,99029.53
2023-02-03T09:56:01.509Z,99027.81
2023-02-03T09:58:35.781Z,99023.59
2023-02-03T10:01:10.507Z,99028.75
2023-02-03T10:03:53.937Z,99010.81
2023-02-03T10:06:33.529Z,99021.09
2023-02-03T10:09:21.362Z,99018.63
2023-02-03T10:12:05.752Z,99013.53
2023-02-03T10:14:48.319Z,99011.84
2023-02-03T10:17:30.000Z,98994.72
2023-02-03T10:20:06.626Z,99016.94
2023-02-03T10:22:42.491Z,99016.16
2023-02-03T10:25:24.392Z,99025.59
2023-02-03T10:27:54.313Z,99023.09
2023-02-03T10:30:25.694Z,99019.56
2023-02-03T10:32:57.702Z,99018.66
2023-02-03T10:35:30.209Z,99026.44
2023-02-03T10:38:01.125Z,99018.66
2023-02-03T10:40:31.266Z,99021.16
2023-02-03T10:43:13.959Z,99011.75
2023-02-03T10:45:43.259Z,99011.66
2023-02-03T10:48:17.665Z,99009.13
2023-02-03T10:50:52.055Z,99014.31
2023-02-03T10:53:28.460Z,99012.63
2023-02-03T10:56:07.135Z,99009.22
2023-02-03T10:58:38.348Z,99011.81
2023-02-03T11:01:19.716Z,98990.50
2023-02-03T11:03:59.821Z,99008.47
2023-02-03T11:06:32.462Z,99009.34
2023-02-03T11:09:26.038Z,99001.69
2023-02-03T11:12:14.124Z,98999.16
2023-02-03T11:14:44.940Z,98995.75
2023-02-03T11:17:19.231Z,99003.44
2023-02-03T11:19:50.399Z,98998.31
2023-02-03T11:22:32.607Z,99005.19
2023-02-03T11:25:01.922Z,98996.72
2023-02-03T11:27:34.996Z,98997.56
2023-02-03T11:30:17.089Z,99001.84
2023-02-03T11:32:47.655Z,99003.56
2023-02-03T11:35:24.631Z,98997.56
2023-02-03T11:37:57.060Z,98983.84
2023-02-03T11:40:28.313Z,98972.69
2023-02-03T11:43:06.947Z,99002.63
2023-02-03T11:45:42.205Z,99006.88
2023-02-03T11:48:30.270Z,99005.09
2023-02-03T11:51:11.747Z,98947.81
2023-02-03T11:53:59.846Z,99001.69
2023-02-03T11:56:37.908Z,98995.69
2023-02-03T11:59:37.589Z,98977.66
2023-02-03T12:02:43.906Z,98987.97
2023-02-03T12:05:31.038Z,98977.78
2023-02-03T12:08:18.066Z,98982.97
2023-02-03T12:11:02.964Z,98991.50
2023-02-03T12:14:10.030Z,98982.16
2023-02-03T12:17:05.986Z,98988.13
2023-02-03T12:19:49.852Z,98977.84
2023-02-03T12:22:27.985Z,98987.16
2023-02-03T12:25:06.198Z,98978.56
2023-02-03T12:27:48.630Z,98973.34
2023-02-03T12:30:21.992Z,98981.09
2023-02-03T12:32:55.808Z,98958.00
2023-02-03T12:35:32.085Z,98981.97
2023-02-03T12:38:07.305Z,98985.38
2023-02-03T12:40:41.999Z,98978.53
2023-02-03T12:43:29.548Z,98972.53
2023-02-03T12:46:03.178Z,98978.53
2023-02-03T12:53:54.177Z,98981.63
2023-02-03T12:56:29.625Z,98979.81
2023-02-03T12:59:09.856Z,98972.09
2023-02-03T13:01:46.918Z,98972.16
2023-02-03T13:04:32.040Z,98975.50
2023-02-03T13:07:10.311Z,98981.50
2023-02-03T13:09:54.959Z,98937.91
2023-02-03T13:12:31.583Z,98983.25
2023-02-03T13:15:14.103Z,98979.81
2023-02-03T13:17:50.365Z,98982.34
2023-02-03T13:20:24.206Z,98962.63
2023-02-03T13:22:53.893Z,98983.13
2023-02-03T13:25:29.115Z,98984.81
2023-02-03T13:28:20.268Z,98986.47
2023-02-03T13:31:15.027Z,98981.38
2023-02-03T13:34:04.026Z,98971.94
2023-02-03T13:37:01.124Z,98978.72
2023-02-03T13:39:53.500Z,98970.16
2023-02-03T13:42:28.248Z,98975.22
2023-02-03T13:45:01.914Z,98977.66
2023-02-03T13:47:34.668Z,98980.13
2023-02-03T13:50:07.163Z,98988.66
2023-02-03T13:52:42.302Z,98934.75
2023-02-03T13:55:31.047Z,98956.09
2023-02-03T13:58:03.879Z,98985.22
2023-02-03T14:01:03.358Z,98991.19
2023-02-03T14:03:48.754Z,98985.31
2023-02-03T14:07:02.239Z,98917.66
2023-02-03T14:10:23.516Z,98984.41
2023-02-03T14:13:03.995Z,98975.75
2023-02-03T14:15:39.237Z,98975.63
2023-02-03T14:18:36.718Z,98995.25
2023-02-03T14:21:14.839Z,98989.22
2023-02-03T14:23:49.945Z,98982.28
2023-02-03T14:26:36.007Z,98978.84
2023-02-03T14:29:10.711Z,98991.66
2023-02-03T14:31:57.249Z,98984.88
2023-02-03T14:34:39.638Z,98985.78
2023-02-03T14:37:16.452Z,98985.66
2023-02-03T14:40:15.206Z,98989.03
2023-02-03T14:43:22.380Z,98991.59
2023-02-03T14:46:18.788Z,98988.16
2023-02-03T14:48:59.631Z,98993.22
2023-02-03T14:51:47.152Z,98973.66
2023-02-03T14:54:31.196Z,98986.56
2023-02-03T14:57:19.208Z,98991.56
2023-02-03T14:59:52.068Z,98989.75
2023-02-03T15:02:31.761Z,98995.69
2023-02-03T15:05:36.412Z,98994.78
2023-02-03T15:08:06.121Z,98994.78
2023-02-03T15:10:44.247Z,98988.72
2023-02-03T15:16:19.679Z,98998.88
2023-02-03T15:18:57.428Z,98994.53
2023-02-03T15:21:27.124Z,98985.22
2023-02-03T15:23:56.737Z,98993.84
2023-02-03T15:26:28.647Z,98990.38
2023-02-03T15:29:01.897Z,98952.66
2023-02-03T15:31:35.795Z,99001.38
2023-02-03T15:34:12.990Z,98998.00
2023-02-03T15:36:47.635Z,98991.22
2023-02-03T15:39:24.129Z,98993.78
2023-02-03T15:41:56.564Z,98962.09
2023-02-03T15:44:32.526Z,98995.56
2023-02-03T15:47:05.826Z,98999.72
2023-02-03T15:49:42.313Z,99006.50
2023-02-03T15:52:17.427Z,98986.81
2023-02-03T15:54:58.958Z,99004.84
2023-02-03T15:57:38.483Z,99005.75
2023-02-03T16:00:25.911Z,99003.25
2023-02-03T16:02:57.765Z,99000.56
2023-02-03T16:05:32.045Z,98975.75
2023-02-03T16:08:31.233Z,99005.84
2023-02-03T16:13:35.630Z,99014.34
2023-02-03T16:16:09.965Z,99015.16
2023-02-03T16:18:58.228Z,99016.88
2023-02-03T16:21:35.565Z,99004.91
2023-02-03T16:24:45.752Z,99002.31
2023-02-03T16:27:33.813Z,99017.78
2023-02-03T16:30:36.519Z,99020.22
2023-02-03T16:33:31.238Z,98982.63
2023-02-03T16:36:26.308Z,99002.28
2023-02-03T16:39:10.451Z,99020.22
2023-02-03T16:41:52.961Z,99019.41
2023-02-03T16:44:35.078Z,99013.50
2023-02-03T16:47:18.395Z,99023.69
2023-02-03T16:50:00.493Z,99011.72
2023-02-03T16:52:29.379Z,99020.44
2023-02-03T16:55:00.817Z,99021.16
2023-02-03T16:57:30.218Z,99012.72
2023-02-03T16:59:59.331Z,99019.44
2023-02-03T17:02:28.517Z,99005.75
2023-02-03T17:04:58.191Z,99022.78
2023-02-03T17:07:27.994Z,98976.72
2023-02-03T17:09:57.253Z,99020.31
2023-02-03T17:12:30.809Z,99009.97
2023-02-03T17:15:00.176Z,99015.94
2023-02-03T17:17:29.699Z,99019.38
2023-02-03T17:20:05.307Z,99018.47
2023-02-03T17:22:34.574Z,99021.06
2023-02-03T17:25:03.942Z,99016.66
2023-02-03T17:27:35.671Z,99004.66
2023-02-03T17:30:05.151Z,99019.31
2023-02-03T17:32:34.561Z,99027.88
2023-02-03T17:35:03.815Z,99032.94
2023-02-03T17:37:35.054Z,99039.81
2023-02-03T17:54:04.399Z,99014.88
2023-02-03T17:56:36.137Z,99040.50
2023-02-03T17:59:07.644Z,99043.88
2023-02-03T18:01:38.190Z,99041.38
2023-02-03T18:04:08.427Z,99042.22
2023-02-03T18:06:37.904Z,99044.69
2023-02-03T18:09:09.770Z,99020.03
2023-02-03T18:11:39.821Z,99029.47
2023-02-03T18:14:13.286Z,99049.22
2023-02-03T18:16:44.023Z,99052.66
2023-02-03T18:19:16.255Z,99027.84
2023-02-03T18:21:47.107Z,99053.59
2023-02-03T18:24:21.935Z,99058.63
2023-02-03T18:26:53.056Z,99056.97
2023-02-03T18:29:24.447Z,99054.38
2023-02-03T18:31:53.746Z,99045.81
2023-02-03T18:34:23.438Z,99056.94
2023-02-03T18:36:57.771Z,99058.63
2023-02-03T18:39:27.122Z,99056.03
2023-02-03T18:41:56.268Z,99067.94
2023-02-03T18:44:27.498Z,99041.28
2023-02-03T18:47:04.837Z,99068.59
2023-02-03T18:49:36.307Z,99075.44
2023-02-03T18:52:06.464Z,99062.47
2023-02-03T18:54:35.587Z,99080.41
2023-02-03T18:57:05.430Z,99076.97
2023-02-03T18:59:36.578Z,99046.91
2023-02-03T19:02:05.927Z,99071.72
2023-02-03T19:04:35.785Z,99085.38
2023-02-03T19:07:05.048Z,99085.34
2023-02-03T19:09:34.685Z,99072.56
2023-02-03T19:12:04.531Z,99087.03
2023-02-03T19:14:42.069Z,99085.28
2023-02-03T19:17:11.902Z,99087.84
2023-02-03T19:22:16.582Z,99088.59
2023-02-03T19:24:45.709Z,99091.22
2023-02-03T19:27:14.997Z,99061.28
2023-02-03T19:29:45.997Z,99083.75
2023-02-03T19:32:15.591Z,99090.59
2023-02-03T19:34:49.790Z,99091.47
2023-02-03T19:37:19.151Z,99088.91
2023-02-03T19:39:51.115Z,99086.25
2023-02-03T19:42:20.493Z,99086.34
2023-02-03T19:44:52.181Z,99089.81
2023-02-03T19:47:21.399Z,99088.78
2023-02-03T19:49:50.634Z,99099.09
2023-02-03T19:52:20.002Z,99099.09
2023-02-03T19:54:51.789Z,99101.69
2023-02-03T19:57:22.159Z,99107.03
2023-02-03T19:59:58.272Z,99105.22
2023-02-03T20:02:27.647Z,99097.50
2023-02-03T20:04:57.180Z,99103.47
2023-02-03T20:07:28.119Z,99108.56
2023-02-03T20:10:02.770Z,99095.69
2023-02-03T20:12:32.611Z,99121.34
2023-02-03T20:15:04.186Z,99111.16
2023-02-03T20:17:33.649Z,99123.91
2023-02-03T20:20:03.836Z,99105.03
2023-02-03T20:22:33.926Z,99129.84
2023-02-03T20:25:03.099Z,99116.97
2023-02-03T20:27:32.606Z,99109.22
2023-02-03T20:30:03.924Z,99119.44
2023-02-03T20:32:34.063Z,99091.84
2023-02-03T20:35:03.684Z,99141.56
2023-02-03T20:37:35.600Z,99137.34
2023-02-03T20:40:05.567Z,99116.69
2023-02-03T20:42:35.767Z,99145.06
2023-02-03T20:45:12.534Z,99144.25
2023-02-03T20:47:47.288Z,99151.09
2023-02-03T20:50:21.727Z,99146.88
2023-02-03T20:52:58.466Z,99120.28
2023-02-03T20:55:35.752Z,99136.66
2023-02-03T20:58:06.622Z,99151.16
2023-02-03T21:00:39.191Z,99145.06
2023-02-03T21:03:29.175Z,99097.81
2023-02-03T21:05:58.999Z,99157.84
2023-02-03T21:08:33.833Z,99159.59
2023-02-03T21:11:03.031Z,99147.56
2023-02-03T21:13:37.583Z,99166.38
2023-02-03T21:16:18.189Z,99163.84
2023-02-03T21:18:50.862Z,99173.94
2023-02-03T21:21:24.606Z,99151.69
2023-02-03T21:24:00.232Z,99131.91
2023-02-03T21:26:32.391Z,99136.25
2023-02-03T21:29:03.595Z,99175.53
2023-02-03T21:31:36.109Z,99177.25
2023-02-03T21:36:55.163Z,99166.16
2023-02-03T21:39:30.560Z,99173.00
2023-02-03T21:42:04.488Z,99177.22
2023-02-03T21:44:42.767Z,99159.97
2023-02-03T21:47:19.264Z,99188.19
2023-02-03T21:49:53.608Z,99187.25
2023-02-03T21:52:22.662Z,99193.22
2023-02-03T21:54:51.997Z,99197.44
2023-02-03T21:57:22.302Z,99171.72
2023-02-03T21:59:51.424Z,99199.16
2023-02-03T22:02:49.637Z,99194.09
2023-02-03T22:05:18.897Z,99194.00
2023-02-03T22:07:47.905Z,99182.75
2023-02-03T22:10:17.616Z,99197.28
2023-02-03T22:12:46.729Z,99205.75
2023-02-03T22:15:16.048Z,99204.09
2023-02-03T22:17:49.338Z,99197.28
2023-02-03T22:20:18.659Z,99210.13
2023-02-03T22:25:29.225Z,99208.38
2023-02-03T22:28:03.382Z,99188.69
2023-02-03T22:30:33.178Z,99208.47
2023-02-03T22:33:04.444Z,99191.38
2023-02-03T22:35:33.933Z,99208.53
2023-02-03T22:38:03.074Z,99207.50
2023-02-03T22:40:32.857Z,99210.69
2023-02-03T22:43:02.670Z,99213.94
2023-02-03T22:45:32.167Z,99206.19
2023-02-03T22:48:01.329Z,99213.13
2023-02-03T22:50:35.910Z,99219.03
2023-02-03T22:53:06.643Z,99219.84
2023-02-03T22:55:35.730Z,99221.50
2023-02-03T22:58:05.350Z,99213.19
2023-02-03T23:00:39.583Z,99207.19
2023-02-03T23:03:09.208Z,99221.03
2023-02-03T23:05:40.304Z,99218.50
2023-02-03T23:08:09.492Z,99221.94
2023-02-03T23:10:38.687Z,99221.03
2023-02-03T23:15:53.484Z,99219.25
2023-02-03T23:18:22.644Z,99221.75
2023-02-03T23:20:53.776Z,99236.19
2023-02-03T23:23:23.089Z,99226.88
2023-02-03T23:25:52.112Z,99222.69
2023-02-03T23:28:21.699Z,99226.06
2023-02-03T23:30:52.168Z,99221.88
2023-02-03T23:33:21.767Z,99221.09
2023-02-03T23:35:50.242Z,99196.22
2023-02-03T23:38:21.280Z,99203.88
2023-02-03T23:40:50.733Z,99222.84
2023-02-03T23:43:20.926Z,99219.50
2023-02-03T23:45:50.062Z,99234.09
2023-02-03T23:48:19.210Z,99227.28
2023-02-03T23:50:48.669Z,99232.41
2023-02-03T23:53:17.808Z,99241.78
2023-02-03T23:55:55.263Z,99237.53
2023-02-03T23:58:24.638Z,99232.31
